sensor_id;sensor_type;location;lat;lon;timestamp;P1;durP1;ratioP1;P2;durP2;ratioP2
11078;SDS011;5592;49.234;7.268;2023-02-08T00:01:09;17.93;;;9.00;;
11078;SDS011;5592;49.234;7.268;2023-02-08T00:03:36;15.90;;;8.47;;
11078;SDS011;5592;49.234;7.268;2023-02-08T00:06:02;19.27;;;8.90;;
11078;SDS011;5592;49.234;7.268;2023-02-08T00:08:29;23.07;;;8.00;;
11078;SDS011;5592;49.234;7.268;2023-02-08T00:10:54;16.90;;;8.20;;
11078;SDS011;5592;49.234;7.268;2023-02-08T00:13:20;17.70;;;8.43;;
11078;SDS011;5592;49.234;7.268;2023-02-08T00:15:45;14.23;;;8.37;;
11078;SDS011;5592;49.234;7.268;2023-02-08T00:18:11;16.33;;;8.50;;
11078;SDS011;5592;49.234;7.268;2023-02-08T00:20:41;16.53;;;7.50;;
11078;SDS011;5592;49.234;7.268;2023-02-08T00:23:07;15.23;;;8.50;;
11078;SDS011;5592;49.234;7.268;2023-02-08T00:25:33;14.60;;;8.00;;
11078;SDS011;5592;49.234;7.268;2023-02-08T00:27:58;14.90;;;7.43;;
11078;SDS011;5592;49.234;7.268;2023-02-08T00:30:24;12.73;;;8.10;;
11078;SDS011;5592;49.234;7.268;2023-02-08T00:32:50;15.43;;;8.20;;
11078;SDS011;5592;49.234;7.268;2023-02-08T00:35:16;15.90;;;8.63;;
11078;SDS011;5592;49.234;7.268;2023-02-08T00:37:42;14.53;;;8.40;;
11078;SDS011;5592;49.234;7.268;2023-02-08T00:40:08;15.73;;;8.20;;
11078;SDS011;5592;49.234;7.268;2023-02-08T00:42:34;16.40;;;8.03;;
11078;SDS011;5592;49.234;7.268;2023-02-08T00:45:00;12.77;;;8.23;;
11078;SDS011;5592;49.234;7.268;2023-02-08T00:47:25;17.43;;;7.90;;
11078;SDS011;5592;49.234;7.268;2023-02-08T00:49:51;15.40;;;8.33;;
11078;SDS011;5592;49.234;7.268;2023-02-08T00:52:16;16.43;;;8.77;;
11078;SDS011;5592;49.234;7.268;2023-02-08T00:54:42;14.73;;;8.17;;
11078;SDS011;5592;49.234;7.268;2023-02-08T00:57:11;15.77;;;7.73;;
11078;SDS011;5592;49.234;7.268;2023-02-08T00:59:37;14.30;;;8.50;;
11078;SDS011;5592;49.234;7.268;2023-02-08T01:02:03;14.03;;;7.00;;
11078;SDS011;5592;49.234;7.268;2023-02-08T01:04:29;13.17;;;7.73;;
11078;SDS011;5592;49.234;7.268;2023-02-08T01:06:55;14.30;;;8.13;;
11078;SDS011;5592;49.234;7.268;2023-02-08T01:09:20;15.50;;;7.40;;
11078;SDS011;5592;49.234;7.268;2023-02-08T01:11:46;14.87;;;7.97;;
11078;SDS011;5592;49.234;7.268;2023-02-08T01:14:12;16.97;;;8.10;;
11078;SDS011;5592;49.234;7.268;2023-02-08T01:16:38;14.10;;;8.70;;
11078;SDS011;5592;49.234;7.268;2023-02-08T01:19:04;16.27;;;7.90;;
11078;SDS011;5592;49.234;7.268;2023-02-08T01:21:34;14.73;;;8.27;;
11078;SDS011;5592;49.234;7.268;2023-02-08T01:24:01;14.20;;;7.77;;
11078;SDS011;5592;49.234;7.268;2023-02-08T01:26:28;18.53;;;8.00;;
11078;SDS011;5592;49.234;7.268;2023-02-08T01:28:54;16.43;;;8.73;;
11078;SDS011;5592;49.234;7.268;2023-02-08T01:31:22;15.23;;;7.90;;
11078;SDS011;5592;49.234;7.268;2023-02-08T01:33:49;17.23;;;8.53;;
11078;SDS011;5592;49.234;7.268;2023-02-08T01:36:15;16.60;;;8.57;;
11078;SDS011;5592;49.234;7.268;2023-02-08T01:38:42;18.23;;;8.30;;
11078;SDS011;5592;49.234;7.268;2023-02-08T01:41:12;16.60;;;8.40;;
11078;SDS011;5592;49.234;7.268;2023-02-08T01:46:35;13.87;;;7.50;;
11078;SDS011;5592;49.234;7.268;2023-02-08T01:49:14;13.60;;;7.57;;
11078;SDS011;5592;49.234;7.268;2023-02-08T01:51:55;12.37;;;7.23;;
11078;SDS011;5592;49.234;7.268;2023-02-08T01:54:30;12.97;;;8.47;;
11078;SDS011;5592;49.234;7.268;2023-02-08T01:57:04;15.50;;;7.70;;
11078;SDS011;5592;49.234;7.268;2023-02-08T01:59:32;14.53;;;8.53;;
11078;SDS011;5592;49.234;7.268;2023-02-08T02:02:03;19.47;;;9.03;;
11078;SDS011;5592;49.234;7.268;2023-02-08T02:04:31;15.80;;;8.60;;
11078;SDS011;5592;49.234;7.268;2023-02-08T02:06:57;15.00;;;7.40;;
11078;SDS011;5592;49.234;7.268;2023-02-08T02:09:28;13.60;;;7.60;;
11078;SDS011;5592;49.234;7.268;2023-02-08T02:12:00;21.73;;;7.33;;
11078;SDS011;5592;49.234;7.268;2023-02-08T02:14:26;17.57;;;8.80;;
11078;SDS011;5592;49.234;7.268;2023-02-08T02:16:52;14.60;;;8.23;;
11078;SDS011;5592;49.234;7.268;2023-02-08T02:22:24;16.70;;;7.93;;
11078;SDS011;5592;49.234;7.268;2023-02-08T02:28:13;18.50;;;8.57;;
11078;SDS011;5592;49.234;7.268;2023-02-08T02:31:26;18.87;;;8.53;;
11078;SDS011;5592;49.234;7.268;2023-02-08T02:36:57;16.77;;;8.10;;
11078;SDS011;5592;49.234;7.268;2023-02-08T02:45:35;18.30;;;8.73;;
11078;SDS011;5592;49.234;7.268;2023-02-08T02:50:45;16.60;;;8.97;;
11078;SDS011;5592;49.234;7.268;2023-02-08T02:53:19;16.77;;;8.10;;
11078;SDS011;5592;49.234;7.268;2023-02-08T02:55:51;15.53;;;8.93;;
11078;SDS011;5592;49.234;7.268;2023-02-08T02:58:22;16.10;;;8.20;;
11078;SDS011;5592;49.234;7.268;2023-02-08T03:00:54;18.70;;;10.17;;
11078;SDS011;5592;49.234;7.268;2023-02-08T03:03:22;18.17;;;9.30;;
11078;SDS011;5592;49.234;7.268;2023-02-08T03:05:50;13.73;;;7.03;;
11078;SDS011;5592;49.234;7.268;2023-02-08T03:10:52;15.50;;;9.00;;
11078;SDS011;5592;49.234;7.268;2023-02-08T03:13:50;13.13;;;8.40;;
11078;SDS011;5592;49.234;7.268;2023-02-08T03:22:31;16.80;;;7.27;;
11078;SDS011;5592;49.234;7.268;2023-02-08T03:25:36;11.80;;;7.60;;
11078;SDS011;5592;49.234;7.268;2023-02-08T03:28:25;11.97;;;7.57;;
11078;SDS011;5592;49.234;7.268;2023-02-08T03:31:04;17.17;;;7.67;;
11078;SDS011;5592;49.234;7.268;2023-02-08T03:33:41;17.20;;;8.43;;
11078;SDS011;5592;49.234;7.268;2023-02-08T03:36:28;17.10;;;8.70;;
11078;SDS011;5592;49.234;7.268;2023-02-08T03:38:59;15.80;;;8.20;;
11078;SDS011;5592;49.234;7.268;2023-02-08T03:41:29;13.37;;;7.50;;
11078;SDS011;5592;49.234;7.268;2023-02-08T03:44:00;17.50;;;8.33;;
11078;SDS011;5592;49.234;7.268;2023-02-08T03:46:42;13.80;;;7.87;;
11078;SDS011;5592;49.234;7.268;2023-02-08T03:49:16;17.50;;;8.20;;
11078;SDS011;5592;49.234;7.268;2023-02-08T03:51:45;18.50;;;8.53;;
11078;SDS011;5592;49.234;7.268;2023-02-08T03:54:11;12.43;;;7.73;;
11078;SDS011;5592;49.234;7.268;2023-02-08T03:56:44;18.43;;;8.70;;
11078;SDS011;5592;49.234;7.268;2023-02-08T03:59:22;17.93;;;8.00;;
11078;SDS011;5592;49.234;7.268;2023-02-08T04:01:57;14.60;;;7.80;;
11078;SDS011;5592;49.234;7.268;2023-02-08T04:04:25;15.07;;;7.80;;
11078;SDS011;5592;49.234;7.268;2023-02-08T04:06:53;13.80;;;8.23;;
11078;SDS011;5592;49.234;7.268;2023-02-08T04:09:19;19.00;;;8.77;;
11078;SDS011;5592;49.234;7.268;2023-02-08T04:11:45;17.77;;;8.73;;
11078;SDS011;5592;49.234;7.268;2023-02-08T04:14:10;13.70;;;8.00;;
11078;SDS011;5592;49.234;7.268;2023-02-08T04:16:36;17.23;;;8.33;;
11078;SDS011;5592;49.234;7.268;2023-02-08T04:19:01;14.63;;;7.23;;
11078;SDS011;5592;49.234;7.268;2023-02-08T04:21:27;20.50;;;8.73;;
11078;SDS011;5592;49.234;7.268;2023-02-08T04:23:53;15.93;;;8.60;;
11078;SDS011;5592;49.234;7.268;2023-02-08T04:26:18;16.60;;;7.80;;
11078;SDS011;5592;49.234;7.268;2023-02-08T04:28:44;16.63;;;9.07;;
11078;SDS011;5592;49.234;7.268;2023-02-08T04:31:09;21.20;;;9.60;;
11078;SDS011;5592;49.234;7.268;2023-02-08T04:33:38;16.67;;;8.93;;
11078;SDS011;5592;49.234;7.268;2023-02-08T04:36:03;17.53;;;8.17;;
11078;SDS011;5592;49.234;7.268;2023-02-08T04:38:29;19.73;;;7.90;;
11078;SDS011;5592;49.234;7.268;2023-02-08T04:40:55;16.07;;;8.47;;
11078;SDS011;5592;49.234;7.268;2023-02-08T04:43:21;14.00;;;7.73;;
11078;SDS011;5592;49.234;7.268;2023-02-08T04:45:48;16.23;;;7.57;;
11078;SDS011;5592;49.234;7.268;2023-02-08T04:48:14;17.10;;;9.10;;
11078;SDS011;5592;49.234;7.268;2023-02-08T04:50:40;18.63;;;9.13;;
11078;SDS011;5592;49.234;7.268;2023-02-08T04:53:06;17.43;;;8.50;;
11078;SDS011;5592;49.234;7.268;2023-02-08T04:55:31;14.23;;;7.87;;
11078;SDS011;5592;49.234;7.268;2023-02-08T04:57:58;19.60;;;8.97;;
11078;SDS011;5592;49.234;7.268;2023-02-08T05:00:23;14.33;;;8.53;;
11078;SDS011;5592;49.234;7.268;2023-02-08T05:02:55;19.20;;;8.27;;
11078;SDS011;5592;49.234;7.268;2023-02-08T05:05:22;17.83;;;9.33;;
11078;SDS011;5592;49.234;7.268;2023-02-08T05:07:49;26.60;;;10.50;;
11078;SDS011;5592;49.234;7.268;2023-02-08T05:10:15;17.70;;;8.90;;
11078;SDS011;5592;49.234;7.268;2023-02-08T05:12:41;22.37;;;9.47;;
11078;SDS011;5592;49.234;7.268;2023-02-08T05:15:07;15.17;;;8.90;;
11078;SDS011;5592;49.234;7.268;2023-02-08T05:17:33;16.83;;;9.33;;
11078;SDS011;5592;49.234;7.268;2023-02-08T05:19:59;16.07;;;7.97;;
11078;SDS011;5592;49.234;7.268;2023-02-08T05:22:24;18.27;;;9.00;;
11078;SDS011;5592;49.234;7.268;2023-02-08T05:24:50;17.93;;;9.20;;
11078;SDS011;5592;49.234;7.268;2023-02-08T05:27:16;16.63;;;8.90;;
11078;SDS011;5592;49.234;7.268;2023-02-08T05:29:41;18.90;;;8.73;;
11078;SDS011;5592;49.234;7.268;2023-02-08T05:32:07;19.47;;;9.93;;
11078;SDS011;5592;49.234;7.268;2023-02-08T05:34:33;14.83;;;7.93;;
11078;SDS011;5592;49.234;7.268;2023-02-08T05:36:59;17.23;;;8.17;;
11078;SDS011;5592;49.234;7.268;2023-02-08T05:39:27;20.87;;;8.63;;
11078;SDS011;5592;49.234;7.268;2023-02-08T05:41:52;19.30;;;9.10;;
11078;SDS011;5592;49.234;7.268;2023-02-08T05:44:18;15.37;;;8.10;;
11078;SDS011;5592;49.234;7.268;2023-02-08T05:46:44;15.20;;;8.00;;
11078;SDS011;5592;49.234;7.268;2023-02-08T05:49:09;17.47;;;9.07;;
11078;SDS011;5592;49.234;7.268;2023-02-08T05:51:35;14.30;;;7.67;;
11078;SDS011;5592;49.234;7.268;2023-02-08T05:54:00;15.60;;;7.80;;
11078;SDS011;5592;49.234;7.268;2023-02-08T05:56:26;14.13;;;7.50;;
11078;SDS011;5592;49.234;7.268;2023-02-08T05:58:52;28.07;;;7.87;;
11078;SDS011;5592;49.234;7.268;2023-02-08T06:01:18;14.33;;;8.13;;
11078;SDS011;5592;49.234;7.268;2023-02-08T06:03:45;15.30;;;8.37;;
11078;SDS011;5592;49.234;7.268;2023-02-08T06:06:10;16.13;;;8.40;;
11078;SDS011;5592;49.234;7.268;2023-02-08T06:08:36;17.97;;;8.60;;
11078;SDS011;5592;49.234;7.268;2023-02-08T06:11:03;17.67;;;8.07;;
11078;SDS011;5592;49.234;7.268;2023-02-08T06:13:28;21.50;;;7.83;;
11078;SDS011;5592;49.234;7.268;2023-02-08T06:15:54;15.27;;;7.33;;
11078;SDS011;5592;49.234;7.268;2023-02-08T06:18:20;13.40;;;7.97;;
11078;SDS011;5592;49.234;7.268;2023-02-08T06:20:46;15.60;;;8.77;;
11078;SDS011;5592;49.234;7.268;2023-02-08T06:23:11;13.23;;;7.70;;
11078;SDS011;5592;49.234;7.268;2023-02-08T06:25:37;18.50;;;7.83;;
11078;SDS011;5592;49.234;7.268;2023-02-08T06:28:03;16.17;;;7.60;;
11078;SDS011;5592;49.234;7.268;2023-02-08T06:30:29;30.77;;;9.30;;
11078;SDS011;5592;49.234;7.268;2023-02-08T06:32:55;19.90;;;7.70;;
11078;SDS011;5592;49.234;7.268;2023-02-08T06:35:21;15.17;;;7.97;;
11078;SDS011;5592;49.234;7.268;2023-02-08T06:37:46;16.77;;;8.17;;
11078;SDS011;5592;49.234;7.268;2023-02-08T06:40:12;17.20;;;7.43;;
11078;SDS011;5592;49.234;7.268;2023-02-08T06:42:38;15.33;;;7.80;;
11078;SDS011;5592;49.234;7.268;2023-02-08T06:45:03;14.20;;;7.63;;
11078;SDS011;5592;49.234;7.268;2023-02-08T06:47:32;18.03;;;7.93;;
11078;SDS011;5592;49.234;7.268;2023-02-08T06:49:57;18.40;;;8.33;;
11078;SDS011;5592;49.234;7.268;2023-02-08T06:52:23;17.27;;;9.00;;
11078;SDS011;5592;49.234;7.268;2023-02-08T06:54:48;13.13;;;7.43;;
11078;SDS011;5592;49.234;7.268;2023-02-08T06:57:14;19.90;;;7.63;;
11078;SDS011;5592;49.234;7.268;2023-02-08T06:59:40;12.70;;;7.80;;
11078;SDS011;5592;49.234;7.268;2023-02-08T07:02:13;16.60;;;7.50;;
11078;SDS011;5592;49.234;7.268;2023-02-08T07:04:40;20.10;;;8.57;;
11078;SDS011;5592;49.234;7.268;2023-02-08T07:07:06;26.10;;;8.50;;
11078;SDS011;5592;49.234;7.268;2023-02-08T07:09:35;19.83;;;8.80;;
11078;SDS011;5592;49.234;7.268;2023-02-08T07:12:01;17.33;;;8.37;;
11078;SDS011;5592;49.234;7.268;2023-02-08T07:14:29;16.80;;;9.07;;
11078;SDS011;5592;49.234;7.268;2023-02-08T07:16:56;21.53;;;9.40;;
11078;SDS011;5592;49.234;7.268;2023-02-08T07:19:21;20.87;;;9.83;;
11078;SDS011;5592;49.234;7.268;2023-02-08T07:21:47;16.80;;;9.23;;
11078;SDS011;5592;49.234;7.268;2023-02-08T07:24:12;17.93;;;9.73;;
11078;SDS011;5592;49.234;7.268;2023-02-08T07:26:38;19.37;;;9.30;;
11078;SDS011;5592;49.234;7.268;2023-02-08T07:29:06;25.70;;;10.90;;
11078;SDS011;5592;49.234;7.268;2023-02-08T07:31:32;23.83;;;9.67;;
11078;SDS011;5592;49.234;7.268;2023-02-08T07:33:58;22.33;;;10.33;;
11078;SDS011;5592;49.234;7.268;2023-02-08T07:36:24;18.57;;;10.77;;
11078;SDS011;5592;49.234;7.268;2023-02-08T07:38:49;23.30;;;10.60;;
11078;SDS011;5592;49.234;7.268;2023-02-08T07:41:15;33.30;;;10.23;;
11078;SDS011;5592;49.234;7.268;2023-02-08T07:43:41;19.40;;;10.63;;
11078;SDS011;5592;49.234;7.268;2023-02-08T07:46:15;17.20;;;9.60;;
11078;SDS011;5592;49.234;7.268;2023-02-08T07:48:42;17.10;;;9.37;;
11078;SDS011;5592;49.234;7.268;2023-02-08T07:51:08;18.83;;;10.23;;
11078;SDS011;5592;49.234;7.268;2023-02-08T07:53:35;16.10;;;9.23;;
11078;SDS011;5592;49.234;7.268;2023-02-08T07:56:04;14.90;;;8.77;;
11078;SDS011;5592;49.234;7.268;2023-02-08T07:58:35;15.30;;;8.17;;
11078;SDS011;5592;49.234;7.268;2023-02-08T08:01:03;14.73;;;8.17;;
11078;SDS011;5592;49.234;7.268;2023-02-08T08:03:30;12.47;;;7.30;;
11078;SDS011;5592;49.234;7.268;2023-02-08T08:05:55;13.77;;;7.80;;
11078;SDS011;5592;49.234;7.268;2023-02-08T08:08:21;15.80;;;7.50;;
11078;SDS011;5592;49.234;7.268;2023-02-08T08:10:50;12.40;;;6.80;;
11078;SDS011;5592;49.234;7.268;2023-02-08T08:13:15;13.97;;;7.57;;
11078;SDS011;5592;49.234;7.268;2023-02-08T08:15:42;14.70;;;7.10;;
11078;SDS011;5592;49.234;7.268;2023-02-08T08:18:08;12.40;;;6.90;;
11078;SDS011;5592;49.234;7.268;2023-02-08T08:20:34;14.90;;;6.90;;
11078;SDS011;5592;49.234;7.268;2023-02-08T08:23:00;9.73;;;5.97;;
11078;SDS011;5592;49.234;7.268;2023-02-08T08:25:31;11.10;;;6.67;;
11078;SDS011;5592;49.234;7.268;2023-02-08T08:28:01;11.90;;;5.73;;
11078;SDS011;5592;49.234;7.268;2023-02-08T08:30:27;11.90;;;6.97;;
11078;SDS011;5592;49.234;7.268;2023-02-08T08:32:54;11.30;;;6.93;;
11078;SDS011;5592;49.234;7.268;2023-02-08T08:35:21;13.77;;;6.80;;
11078;SDS011;5592;49.234;7.268;2023-02-08T08:37:47;14.17;;;6.93;;
11078;SDS011;5592;49.234;7.268;2023-02-08T08:40:16;7.00;;;5.87;;
11078;SDS011;5592;49.234;7.268;2023-02-08T08:42:47;13.70;;;7.43;;
11078;SDS011;5592;49.234;7.268;2023-02-08T08:45:33;9.97;;;6.60;;
11078;SDS011;5592;49.234;7.268;2023-02-08T08:48:00;10.67;;;6.53;;
11078;SDS011;5592;49.234;7.268;2023-02-08T08:50:27;10.87;;;7.00;;
11078;SDS011;5592;49.234;7.268;2023-02-08T08:52:54;9.03;;;6.20;;
11078;SDS011;5592;49.234;7.268;2023-02-08T08:55:22;11.80;;;6.70;;
11078;SDS011;5592;49.234;7.268;2023-02-08T08:57:48;9.63;;;7.13;;
11078;SDS011;5592;49.234;7.268;2023-02-08T09:00:16;10.07;;;7.67;;
11078;SDS011;5592;49.234;7.268;2023-02-08T09:02:43;10.03;;;6.77;;
11078;SDS011;5592;49.234;7.268;2023-02-08T09:05:08;9.93;;;6.80;;
11078;SDS011;5592;49.234;7.268;2023-02-08T09:07:34;11.10;;;6.73;;
11078;SDS011;5592;49.234;7.268;2023-02-08T09:10:01;9.03;;;7.30;;
11078;SDS011;5592;49.234;7.268;2023-02-08T09:12:27;9.20;;;7.20;;
11078;SDS011;5592;49.234;7.268;2023-02-08T09:14:53;11.23;;;7.17;;
11078;SDS011;5592;49.234;7.268;2023-02-08T09:17:20;10.43;;;7.17;;
11078;SDS011;5592;49.234;7.268;2023-02-08T09:19:45;10.57;;;6.20;;
11078;SDS011;5592;49.234;7.268;2023-02-08T09:22:11;10.97;;;7.30;;
11078;SDS011;5592;49.234;7.268;2023-02-08T09:24:37;9.40;;;6.87;;
11078;SDS011;5592;49.234;7.268;2023-02-08T09:27:04;8.90;;;6.30;;
11078;SDS011;5592;49.234;7.268;2023-02-08T09:29:29;9.33;;;6.60;;
11078;SDS011;5592;49.234;7.268;2023-02-08T09:31:56;11.10;;;6.63;;
11078;SDS011;5592;49.234;7.268;2023-02-08T09:34:22;9.80;;;6.30;;
11078;SDS011;5592;49.234;7.268;2023-02-08T09:36:48;7.20;;;5.70;;
11078;SDS011;5592;49.234;7.268;2023-02-08T09:39:16;11.90;;;6.90;;
11078;SDS011;5592;49.234;7.268;2023-02-08T09:41:47;9.23;;;6.73;;
11078;SDS011;5592;49.234;7.268;2023-02-08T09:47:30;9.80;;;5.60;;
11078;SDS011;5592;49.234;7.268;2023-02-08T09:52:54;6.40;;;4.63;;
11078;SDS011;5592;49.234;7.268;2023-02-08T09:55:39;11.33;;;6.60;;
11078;SDS011;5592;49.234;7.268;2023-02-08T09:58:38;11.00;;;6.90;;
11078;SDS011;5592;49.234;7.268;2023-02-08T10:01:11;5.00;;;4.03;;
11078;SDS011;5592;49.234;7.268;2023-02-08T10:03:43;7.03;;;4.67;;
11078;SDS011;5592;49.234;7.268;2023-02-08T10:06:14;6.37;;;5.57;;
11078;SDS011;5592;49.234;7.268;2023-02-08T10:08:50;8.70;;;6.10;;
11078;SDS011;5592;49.234;7.268;2023-02-08T10:14:14;7.40;;;5.37;;
11078;SDS011;5592;49.234;7.268;2023-02-08T10:21:57;5.70;;;3.70;;
11078;SDS011;5592;49.234;7.268;2023-02-08T10:24:58;3.37;;;2.60;;
11078;SDS011;5592;49.234;7.268;2023-02-08T10:30:16;4.30;;;2.93;;
11078;SDS011;5592;49.234;7.268;2023-02-08T10:35:35;4.37;;;3.30;;
11078;SDS011;5592;49.234;7.268;2023-02-08T10:40:57;8.40;;;2.63;;
11078;SDS011;5592;49.234;7.268;2023-02-08T10:46:05;6.50;;;2.27;;
11078;SDS011;5592;49.234;7.268;2023-02-08T10:48:51;3.40;;;2.37;;
11078;SDS011;5592;49.234;7.268;2023-02-08T10:51:27;4.50;;;2.40;;
11078;SDS011;5592;49.234;7.268;2023-02-08T10:53:54;7.63;;;2.70;;
11078;SDS011;5592;49.234;7.268;2023-02-08T10:56:25;6.40;;;2.27;;
11078;SDS011;5592;49.234;7.268;2023-02-08T10:59:04;6.53;;;3.43;;
11078;SDS011;5592;49.234;7.268;2023-02-08T11:01:46;5.23;;;2.80;;
11078;SDS011;5592;49.234;7.268;2023-02-08T11:04:13;7.23;;;2.53;;
11078;SDS011;5592;49.234;7.268;2023-02-08T11:06:41;4.07;;;2.77;;
11078;SDS011;5592;49.234;7.268;2023-02-08T11:09:19;7.03;;;2.50;;
11078;SDS011;5592;49.234;7.268;2023-02-08T11:11:49;4.07;;;2.77;;
11078;SDS011;5592;49.234;7.268;2023-02-08T11:14:18;9.97;;;2.27;;
11078;SDS011;5592;49.234;7.268;2023-02-08T11:16:48;3.27;;;2.30;;
11078;SDS011;5592;49.234;7.268;2023-02-08T11:19:29;4.03;;;2.40;;
11078;SDS011;5592;49.234;7.268;2023-02-08T11:22:01;2.30;;;2.10;;
11078;SDS011;5592;49.234;7.268;2023-02-08T11:24:34;6.80;;;2.47;;
11078;SDS011;5592;49.234;7.268;2023-02-08T11:27:17;2.80;;;2.10;;
11078;SDS011;5592;49.234;7.268;2023-02-08T11:30:08;3.93;;;2.43;;
11078;SDS011;5592;49.234;7.268;2023-02-08T11:32:43;3.70;;;2.27;;
11078;SDS011;5592;49.234;7.268;2023-02-08T11:37:50;4.30;;;2.57;;
11078;SDS011;5592;49.234;7.268;2023-02-08T11:40:19;5.20;;;2.47;;
11078;SDS011;5592;49.234;7.268;2023-02-08T11:42:51;4.53;;;2.37;;
11078;SDS011;5592;49.234;7.268;2023-02-08T11:45:21;3.63;;;2.37;;
11078;SDS011;5592;49.234;7.268;2023-02-08T11:47:49;3.17;;;1.90;;
11078;SDS011;5592;49.234;7.268;2023-02-08T11:53:04;3.40;;;2.30;;
11078;SDS011;5592;49.234;7.268;2023-02-08T11:55:35;2.50;;;2.00;;
11078;SDS011;5592;49.234;7.268;2023-02-08T11:58:16;8.20;;;2.67;;
11078;SDS011;5592;49.234;7.268;2023-02-08T12:00:57;4.17;;;2.03;;
11078;SDS011;5592;49.234;7.268;2023-02-08T12:03:26;4.07;;;2.60;;
11078;SDS011;5592;49.234;7.268;2023-02-08T12:06:15;4.87;;;2.43;;
11078;SDS011;5592;49.234;7.268;2023-02-08T12:12:27;3.13;;;1.80;;
11078;SDS011;5592;49.234;7.268;2023-02-08T12:53:42;3.27;;;1.80;;
11078;SDS011;5592;49.234;7.268;2023-02-08T12:56:16;6.77;;;2.00;;
11078;SDS011;5592;49.234;7.268;2023-02-08T12:58:48;3.67;;;2.00;;
11078;SDS011;5592;49.234;7.268;2023-02-08T13:01:17;3.50;;;2.13;;
11078;SDS011;5592;49.234;7.268;2023-02-08T13:06:20;3.63;;;1.43;;
11078;SDS011;5592;49.234;7.268;2023-02-08T13:11:53;5.63;;;2.23;;
11078;SDS011;5592;49.234;7.268;2023-02-08T13:15:05;9.33;;;2.00;;
11078;SDS011;5592;49.234;7.268;2023-02-08T13:17:56;2.33;;;1.90;;
11078;SDS011;5592;49.234;7.268;2023-02-08T13:20:32;3.73;;;1.73;;
11078;SDS011;5592;49.234;7.268;2023-02-08T13:23:12;4.90;;;1.60;;
11078;SDS011;5592;49.234;7.268;2023-02-08T13:25:55;1.53;;;1.43;;
11078;SDS011;5592;49.234;7.268;2023-02-08T13:28:28;2.77;;;1.70;;
11078;SDS011;5592;49.234;7.268;2023-02-08T13:30:58;2.37;;;1.80;;
11078;SDS011;5592;49.234;7.268;2023-02-08T13:36:31;2.50;;;1.50;;
11078;SDS011;5592;49.234;7.268;2023-02-08T13:38:59;2.53;;;1.90;;
11078;SDS011;5592;49.234;7.268;2023-02-08T13:41:26;2.40;;;1.67;;
11078;SDS011;5592;49.234;7.268;2023-02-08T13:43:58;3.83;;;2.03;;
11078;SDS011;5592;49.234;7.268;2023-02-08T13:46:27;3.60;;;1.90;;
11078;SDS011;5592;49.234;7.268;2023-02-08T13:48:59;8.50;;;1.87;;
11078;SDS011;5592;49.234;7.268;2023-02-08T13:59:09;4.70;;;2.77;;
11078;SDS011;5592;49.234;7.268;2023-02-08T14:04:36;6.33;;;3.00;;
11078;SDS011;5592;49.234;7.268;2023-02-08T14:07:05;5.73;;;3.13;;
11078;SDS011;5592;49.234;7.268;2023-02-08T14:15:03;7.77;;;2.90;;
11078;SDS011;5592;49.234;7.268;2023-02-08T14:17:48;6.03;;;3.20;;
11078;SDS011;5592;49.234;7.268;2023-02-08T14:23:23;5.90;;;3.27;;
11078;SDS011;5592;49.234;7.268;2023-02-08T14:25:51;4.90;;;3.30;;
11078;SDS011;5592;49.234;7.268;2023-02-08T14:28:43;9.80;;;3.20;;
11078;SDS011;5592;49.234;7.268;2023-02-08T14:31:10;2.97;;;2.63;;
11078;SDS011;5592;49.234;7.268;2023-02-08T14:33:40;5.97;;;3.50;;
11078;SDS011;5592;49.234;7.268;2023-02-08T14:38:55;12.50;;;3.47;;
11078;SDS011;5592;49.234;7.268;2023-02-08T14:41:49;6.27;;;3.57;;
11078;SDS011;5592;49.234;7.268;2023-02-08T14:47:02;4.43;;;2.97;;
11078;SDS011;5592;49.234;7.268;2023-02-08T14:49:47;7.13;;;3.70;;
11078;SDS011;5592;49.234;7.268;2023-02-08T14:52:14;3.73;;;3.00;;
11078;SDS011;5592;49.234;7.268;2023-02-08T14:57:28;7.40;;;3.43;;
11078;SDS011;5592;49.234;7.268;2023-02-08T14:59:59;4.47;;;3.50;;
11078;SDS011;5592;49.234;7.268;2023-02-08T15:02:30;4.50;;;3.53;;
11078;SDS011;5592;49.234;7.268;2023-02-08T15:04:58;8.33;;;3.93;;
11078;SDS011;5592;49.234;7.268;2023-02-08T15:07:30;4.57;;;2.87;;
11078;SDS011;5592;49.234;7.268;2023-02-08T15:10:05;6.93;;;3.77;;
11078;SDS011;5592;49.234;7.268;2023-02-08T15:12:37;7.10;;;3.53;;
11078;SDS011;5592;49.234;7.268;2023-02-08T15:15:05;6.33;;;3.27;;
11078;SDS011;5592;49.234;7.268;2023-02-08T15:17:44;5.10;;;3.77;;
11078;SDS011;5592;49.234;7.268;2023-02-08T15:20:19;5.57;;;3.20;;
11078;SDS011;5592;49.234;7.268;2023-02-08T15:22:47;5.93;;;3.50;;
11078;SDS011;5592;49.234;7.268;2023-02-08T15:27:55;8.07;;;3.00;;
11078;SDS011;5592;49.234;7.268;2023-02-08T15:32:49;5.97;;;3.20;;
11078;SDS011;5592;49.234;7.268;2023-02-08T15:35:17;5.70;;;3.30;;
11078;SDS011;5592;49.234;7.268;2023-02-08T15:37:50;6.23;;;3.37;;
11078;SDS011;5592;49.234;7.268;2023-02-08T15:40:23;8.23;;;3.73;;
11078;SDS011;5592;49.234;7.268;2023-02-08T15:42:51;4.83;;;3.53;;
11078;SDS011;5592;49.234;7.268;2023-02-08T15:45:23;8.00;;;4.00;;
11078;SDS011;5592;49.234;7.268;2023-02-08T15:47:54;6.50;;;3.70;;
11078;SDS011;5592;49.234;7.268;2023-02-08T15:50:20;5.90;;;3.50;;
11078;SDS011;5592;49.234;7.268;2023-02-08T15:52:55;6.67;;;3.60;;
11078;SDS011;5592;49.234;7.268;2023-02-08T15:55:23;7.73;;;4.27;;
11078;SDS011;5592;49.234;7.268;2023-02-08T15:57:56;6.30;;;3.10;;
11078;SDS011;5592;49.234;7.268;2023-02-08T16:00:28;6.03;;;3.17;;
11078;SDS011;5592;49.234;7.268;2023-02-08T16:03:00;5.43;;;3.50;;
11078;SDS011;5592;49.234;7.268;2023-02-08T16:05:33;5.20;;;3.57;;
11078;SDS011;5592;49.234;7.268;2023-02-08T16:07:59;7.30;;;3.93;;
11078;SDS011;5592;49.234;7.268;2023-02-08T16:10:38;5.20;;;3.80;;
11078;SDS011;5592;49.234;7.268;2023-02-08T16:15:48;6.30;;;3.33;;
11078;SDS011;5592;49.234;7.268;2023-02-08T16:21:04;6.00;;;3.57;;
11078;SDS011;5592;49.234;7.268;2023-02-08T16:23:47;7.00;;;3.77;;
11078;SDS011;5592;49.234;7.268;2023-02-08T16:26:20;7.47;;;3.40;;
11078;SDS011;5592;49.234;7.268;2023-02-08T16:28:52;5.10;;;3.50;;
11078;SDS011;5592;49.234;7.268;2023-02-08T16:31:26;8.13;;;4.33;;
11078;SDS011;5592;49.234;7.268;2023-02-08T16:33:58;13.47;;;5.37;;
11078;SDS011;5592;49.234;7.268;2023-02-08T16:36:39;6.00;;;3.77;;
11078;SDS011;5592;49.234;7.268;2023-02-08T16:41:58;6.90;;;4.33;;
11078;SDS011;5592;49.234;7.268;2023-02-08T16:44:29;9.10;;;4.20;;
11078;SDS011;5592;49.234;7.268;2023-02-08T16:46:57;9.37;;;3.70;;
11078;SDS011;5592;49.234;7.268;2023-02-08T16:49:27;15.10;;;4.13;;
11078;SDS011;5592;49.234;7.268;2023-02-08T16:51:58;6.97;;;3.50;;
11078;SDS011;5592;49.234;7.268;2023-02-08T16:54:24;8.50;;;3.90;;
11078;SDS011;5592;49.234;7.268;2023-02-08T16:56:51;11.87;;;3.43;;
11078;SDS011;5592;49.234;7.268;2023-02-08T16:59:24;16.43;;;4.47;;
11078;SDS011;5592;49.234;7.268;2023-02-08T17:01:50;9.87;;;4.13;;
11078;SDS011;5592;49.234;7.268;2023-02-08T17:04:16;8.10;;;4.33;;
11078;SDS011;5592;49.234;7.268;2023-02-08T17:06:42;5.53;;;3.50;;
11078;SDS011;5592;49.234;7.268;2023-02-08T17:09:11;9.30;;;4.27;;
11078;SDS011;5592;49.234;7.268;2023-02-08T17:11:37;9.50;;;5.03;;
11078;SDS011;5592;49.234;7.268;2023-02-08T17:14:04;5.13;;;3.70;;
11078;SDS011;5592;49.234;7.268;2023-02-08T17:16:31;7.87;;;4.03;;
11078;SDS011;5592;49.234;7.268;2023-02-08T17:18:58;6.13;;;3.87;;
11078;SDS011;5592;49.234;7.268;2023-02-08T17:21:28;7.60;;;3.80;;
11078;SDS011;5592;49.234;7.268;2023-02-08T17:23:55;7.70;;;3.70;;
11078;SDS011;5592;49.234;7.268;2023-02-08T17:26:22;6.00;;;4.50;;
11078;SDS011;5592;49.234;7.268;2023-02-08T17:28:53;5.80;;;3.53;;
11078;SDS011;5592;49.234;7.268;2023-02-08T17:31:20;8.20;;;3.80;;
11078;SDS011;5592;49.234;7.268;2023-02-08T17:33:46;11.57;;;4.33;;
11078;SDS011;5592;49.234;7.268;2023-02-08T17:36:14;6.23;;;3.97;;
11078;SDS011;5592;49.234;7.268;2023-02-08T17:38:41;9.50;;;5.20;;
11078;SDS011;5592;49.234;7.268;2023-02-08T17:41:11;10.43;;;4.40;;